Station Historical Data
Daily Summary for October 24, 2017 Units:  English    Metric   Both
Next Day »
Daily Weekly Monthly Yearly Custom
  High: Low: Average:
Temperature: 81.9 °F 66.5 °F 72.3 °F
Dew Point: 55.6 °F 40.8 °F 48.1 °F
Humidity: 57% 27% 43%
Wind Speed: 16.0mph 0.0mph 1.7mph
Wind Gust: 24.0mph - -
Wind- - SE
Pressure: 30.22 in 30.08 in -
Precipitation: 0.00 in    
Historical Graphs
 
 
Tabular Data for October 24, 2017
Time Temperature Dew Point Pressure Wind Wind Speed Wind Gust Humidity Rainfall Rate (Hourly) solar Conditions
00:01 68.2 °F 45.5 °F 30.22 in Calm     44% 0.00 in 0.00 W/m2
00:06 68.1 °F 46.0 °F 30.22 in Calm     45% 0.00 in 0.00 W/m2
00:11 68.1 °F 45.4 °F 30.22 in East 2.0 mph 5.0 mph 44% 0.00 in 0.00 W/m2
00:16 67.9 °F 45.8 °F 30.22 in Calm   4.0 mph 45% 0.00 in 0.00 W/m2
00:21 67.8 °F 45.1 °F 30.22 in Calm     44% 0.00 in 0.00 W/m2
00:26 67.7 °F 44.4 °F 30.22 in Calm     43% 0.00 in 0.00 W/m2
00:31 67.6 °F 45.5 °F 30.22 in East 1.0 mph 6.0 mph 45% 0.00 in 0.00 W/m2
00:36 67.6 °F 46.1 °F 30.22 in Calm   8.0 mph 46% 0.00 in 0.00 W/m2
00:41 67.4 °F 44.2 °F 30.22 in ESE 5.0 mph 6.0 mph 43% 0.00 in 0.00 W/m2
00:46 67.4 °F 45.3 °F 30.22 in ESE 1.0 mph 4.0 mph 45% 0.00 in 0.00 W/m2
00:51 67.4 °F 44.8 °F 30.22 in Calm   2.0 mph 44% 0.00 in 0.00 W/m2
00:56 67.3 °F 43.5 °F 30.22 in Calm   6.0 mph 42% 0.00 in 0.00 W/m2
01:01 67.3 °F 44.1 °F 30.22 in East 7.0 mph 8.0 mph 43% 0.00 in 0.00 W/m2
01:06 67.4 °F 44.2 °F 30.22 in ESE 5.0 mph 5.0 mph 43% 0.00 in 0.00 W/m2
01:11 67.4 °F 44.2 °F 30.22 in Calm   5.0 mph 43% 0.00 in 0.00 W/m2
01:16 67.4 °F 44.8 °F 30.21 in ENE 7.0 mph 13.0 mph 44% 0.00 in 0.00 W/m2
01:21 67.4 °F 45.3 °F 30.21 in East 6.0 mph 13.0 mph 45% 0.00 in 0.00 W/m2
01:26 67.4 °F 45.3 °F 30.21 in ESE 2.0 mph 11.0 mph 45% 0.00 in 0.00 W/m2
01:31 67.4 °F 46.5 °F 30.21 in Calm   5.0 mph 47% 0.00 in 0.00 W/m2
01:36 67.4 °F 47.0 °F 30.21 in East 12.0 mph 12.0 mph 48% 0.00 in 0.00 W/m2
01:41 67.4 °F 47.0 °F 30.21 in ESE 13.0 mph 15.0 mph 48% 0.00 in 0.00 W/m2
01:47 67.4 °F 46.5 °F 30.21 in East 1.0 mph 14.0 mph 47% 0.00 in 0.00 W/m2
01:52 67.3 °F 45.8 °F 30.21 in ESE 2.0 mph 5.0 mph 46% 0.00 in 0.00 W/m2
01:57 67.0 °F 45.0 °F 30.21 in Calm     45% 0.00 in 0.00 W/m2
02:02 66.8 °F 45.4 °F 30.21 in Calm   9.0 mph 46% 0.00 in 0.00 W/m2
02:07 66.7 °F 44.7 °F 30.21 in Calm   5.0 mph 45% 0.00 in 0.00 W/m2
02:12 66.6 °F 45.2 °F 30.21 in East 2.0 mph 7.0 mph 46% 0.00 in 0.00 W/m2
02:17 66.5 °F 43.9 °F 30.21 in Calm   8.0 mph 44% 0.00 in 0.00 W/m2
02:22 66.5 °F 43.3 °F 30.21 in ESE 5.0 mph 5.0 mph 43% 0.00 in 0.00 W/m2
02:27 66.5 °F 43.9 °F 30.21 in ESE 2.0 mph 2.0 mph 44% 0.00 in 0.00 W/m2
02:32 66.5 °F 43.9 °F 30.21 in Calm   4.0 mph 44% 0.00 in 0.00 W/m2
02:37 66.5 °F 43.9 °F 30.21 in Calm   4.0 mph 44% 0.00 in 0.00 W/m2
02:42 66.5 °F 43.9 °F 30.21 in ESE 2.0 mph 5.0 mph 44% 0.00 in 0.00 W/m2
02:47 66.5 °F 42.7 °F 30.21 in Calm   5.0 mph 42% 0.00 in 0.00 W/m2
02:52 66.5 °F 42.1 °F 30.21 in ESE 4.0 mph 8.0 mph 41% 0.00 in 0.00 W/m2
02:57 66.6 °F 45.2 °F 30.21 in Calm   14.0 mph 46% 0.00 in 0.00 W/m2
03:02 66.7 °F 44.1 °F 30.21 in East 7.0 mph 7.0 mph 44% 0.00 in 0.00 W/m2
03:07 66.9 °F 43.7 °F 30.21 in East 5.0 mph 11.0 mph 43% 0.00 in 0.00 W/m2
04:42 70.2 °F 42.7 °F 30.19 in East 1.0 mph 9.0 mph 37% 0.00 in 0.00 W/m2
04:47 70.3 °F 42.8 °F 30.18 in ESE 1.0 mph 19.0 mph 37% 0.00 in 0.00 W/m2
04:52 70.2 °F 43.4 °F 30.18 in ESE 5.0 mph 11.0 mph 38% 0.00 in 0.00 W/m2
04:57 70.2 °F 42.7 °F 30.19 in East 5.0 mph 17.0 mph 37% 0.00 in 0.00 W/m2
05:02 70.2 °F 43.4 °F 30.19 in Calm   6.0 mph 38% 0.00 in 0.00 W/m2
05:07 70.2 °F 43.4 °F 30.18 in ESE 8.0 mph 18.0 mph 38% 0.00 in 0.00 W/m2
05:12 70.1 °F 43.3 °F 30.18 in Calm   5.0 mph 38% 0.00 in 0.00 W/m2
05:17 70.0 °F 42.6 °F 30.18 in Calm   1.0 mph 37% 0.00 in 0.00 W/m2
05:22 70.0 °F 42.6 °F 30.18 in Calm   16.0 mph 37% 0.00 in 0.00 W/m2
05:27 69.9 °F 42.5 °F 30.18 in ESE 1.0 mph 19.0 mph 37% 0.00 in 0.00 W/m2
05:32 69.9 °F 42.5 °F 30.18 in East 5.0 mph 24.0 mph 37% 0.00 in 0.00 W/m2
05:37 70.0 °F 42.6 °F 30.18 in ESE 8.0 mph 21.0 mph 37% 0.00 in 0.00 W/m2
05:42 70.0 °F 43.2 °F 30.18 in ESE 6.0 mph 20.0 mph 38% 0.00 in 0.00 W/m2
05:47 70.0 °F 41.8 °F 30.18 in East 13.0 mph 16.0 mph 36% 0.00 in 0.00 W/m2
05:52 70.1 °F 41.9 °F 30.18 in Calm   16.0 mph 36% 0.00 in 0.00 W/m2
05:57 70.2 °F 42.7 °F 30.18 in East 1.0 mph 5.0 mph 37% 0.00 in 0.00 W/m2
05:59 70.3 °F 42.1 °F 30.18 in Calm   19.0 mph 36% 0.00 in 0.00 W/m2
06:04 70.3 °F 42.8 °F 30.18 in East 1.0 mph 17.0 mph 37% 0.00 in 0.00 W/m2
06:09 70.2 °F 42.7 °F 30.18 in SE 10.0 mph 19.0 mph 37% 0.00 in 0.00 W/m2
06:14 70.1 °F 42.7 °F 30.18 in East 2.0 mph 10.0 mph 37% 0.00 in 0.00 W/m2
06:19 70.1 °F 41.9 °F 30.18 in East 4.0 mph 16.0 mph 36% 0.00 in 0.00 W/m2
06:24 70.1 °F 41.2 °F 30.18 in Calm   17.0 mph 35% 0.00 in 0.00 W/m2
06:29 70.1 °F 41.2 °F 30.18 in East 4.0 mph 16.0 mph 35% 0.00 in 0.00 W/m2
06:34 70.2 °F 42.0 °F 30.18 in Calm   6.0 mph 36% 0.00 in 0.00 W/m2
06:39 70.3 °F 41.4 °F 30.18 in Calm   19.0 mph 35% 0.00 in 0.00 W/m2
06:44 70.3 °F 42.1 °F 30.18 in Calm   4.0 mph 36% 0.00 in 0.00 W/m2
06:49 70.3 °F 42.1 °F 30.18 in Calm   12.0 mph 36% 0.00 in 0.00 W/m2
06:54 70.3 °F 41.4 °F 30.18 in Calm   14.0 mph 35% 0.00 in 0.00 W/m2
06:59 70.3 °F 42.1 °F 30.18 in Calm   19.0 mph 36% 0.00 in 0.00 W/m2
07:04 70.3 °F 42.8 °F 30.18 in ESE 6.0 mph 19.0 mph 37% 0.00 in 0.00 W/m2
07:09 70.2 °F 42.0 °F 30.18 in ESE 4.0 mph 21.0 mph 36% 0.00 in 0.00 W/m2
07:14 70.1 °F 42.7 °F 30.18 in East 13.0 mph 17.0 mph 37% 0.00 in 0.00 W/m2
07:19 70.0 °F 41.1 °F 30.18 in ESE 1.0 mph 18.0 mph 35% 0.00 in 5.00 W/m2
07:24 69.9 °F 42.5 °F 30.18 in Calm   15.0 mph 37% 0.00 in 7.00 W/m2
07:25 69.9 °F 42.5 °F 30.18 in SE 10.0 mph 18.0 mph 37% 0.00 in 7.00 W/m2
07:30 69.8 °F 41.7 °F 30.18 in ESE 5.0 mph 20.0 mph 36% 0.00 in 9.00 W/m2
07:35 69.8 °F 41.7 °F 30.18 in ESE 11.0 mph 15.0 mph 36% 0.00 in 12.00 W/m2
07:40 69.7 °F 41.6 °F 30.18 in ESE 16.0 mph 22.0 mph 36% 0.00 in 14.00 W/m2
07:45 69.7 °F 40.8 °F 30.18 in East 13.0 mph 20.0 mph 35% 0.00 in 18.00 W/m2
07:50 69.8 °F 41.7 °F 30.18 in Calm   20.0 mph 36% 0.00 in 26.00 W/m2
07:55 69.9 °F 42.5 °F 30.18 in East 14.0 mph 15.0 mph 37% 0.00 in 39.00 W/m2
08:00 69.9 °F 42.5 °F 30.18 in East 11.0 mph 20.0 mph 37% 0.00 in 51.00 W/m2
08:05 69.9 °F 42.5 °F 30.19 in Calm   9.0 mph 37% 0.00 in 69.00 W/m2
08:10 69.9 °F 41.8 °F 30.19 in ESE 1.0 mph 18.0 mph 36% 0.00 in 84.00 W/m2
08:15 69.9 °F 42.5 °F 30.19 in Calm   16.0 mph 37% 0.00 in 86.00 W/m2
08:20 69.9 °F 43.2 °F 30.19 in ESE 6.0 mph 14.0 mph 38% 0.00 in 123.00 W/m2
08:25 69.8 °F 45.1 °F 30.19 in East 4.0 mph 18.0 mph 41% 0.00 in 141.00 W/m2
08:30 69.5 °F 45.4 °F 30.19 in East 1.0 mph 7.0 mph 42% 0.00 in 158.00 W/m2
08:35 68.9 °F 44.9 °F 30.19 in Calm   6.0 mph 42% 0.00 in 179.00 W/m2
08:40 68.4 °F 44.4 °F 30.19 in East 4.0 mph 7.0 mph 42% 0.00 in 199.00 W/m2
08:45 67.9 °F 44.0 °F 30.19 in ENE 2.0 mph 8.0 mph 42% 0.00 in 220.00 W/m2
08:50 67.5 °F 44.8 °F 30.20 in Calm   8.0 mph 44% 0.00 in 239.00 W/m2
08:55 67.3 °F 43.5 °F 30.19 in Calm   12.0 mph 42% 0.00 in 260.00 W/m2
09:00 67.3 °F 43.5 °F 30.20 in Calm   6.0 mph 42% 0.00 in 279.00 W/m2
09:05 67.2 °F 44.6 °F 30.20 in ENE 6.0 mph 11.0 mph 44% 0.00 in 295.00 W/m2
09:10 67.2 °F 44.6 °F 30.20 in Calm   7.0 mph 44% 0.00 in 315.00 W/m2
09:15 67.3 °F 44.1 °F 30.20 in Calm   6.0 mph 43% 0.00 in 329.00 W/m2
09:20 67.4 °F 44.8 °F 30.20 in East 4.0 mph 7.0 mph 44% 0.00 in 339.00 W/m2
09:25 67.6 °F 45.5 °F 30.20 in Calm   8.0 mph 45% 0.00 in 359.00 W/m2
09:30 67.8 °F 45.1 °F 30.20 in ENE 3.0 mph 5.0 mph 44% 0.00 in 373.00 W/m2
09:35 68.0 °F 45.3 °F 30.20 in Calm   8.0 mph 44% 0.00 in 385.00 W/m2
09:40 68.3 °F 45.0 °F 30.20 in Calm   8.0 mph 43% 0.00 in 399.00 W/m2
09:45 68.6 °F 44.6 °F 30.20 in Calm   12.0 mph 42% 0.00 in 413.00 W/m2
09:50 69.0 °F 45.6 °F 30.20 in Calm   11.0 mph 43% 0.00 in 427.00 W/m2
09:55 69.3 °F 46.5 °F 30.20 in Calm   8.0 mph 44% 0.00 in 439.00 W/m2
10:00 69.6 °F 44.9 °F 30.20 in Calm   13.0 mph 41% 0.00 in 452.00 W/m2
10:05 70.0 °F 45.2 °F 30.20 in East 3.0 mph 12.0 mph 41% 0.00 in 464.00 W/m2
10:10 70.4 °F 45.6 °F 30.20 in East 5.0 mph 11.0 mph 41% 0.00 in 475.00 W/m2
10:15 70.8 °F 45.3 °F 30.19 in East 1.0 mph 12.0 mph 40% 0.00 in 485.00 W/m2
10:20 71.3 °F 45.1 °F 30.19 in ESE 4.0 mph 11.0 mph 39% 0.00 in 497.00 W/m2
10:25 71.8 °F 44.8 °F 30.19 in East 4.0 mph 8.0 mph 38% 0.00 in 508.00 W/m2
10:30 72.4 °F 47.4 °F 30.19 in Calm   7.0 mph 41% 0.00 in 519.00 W/m2
10:35 72.8 °F 47.8 °F 30.20 in ENE 1.0 mph 3.0 mph 41% 0.00 in 529.00 W/m2
10:40 73.3 °F 45.5 °F 30.19 in ENE 7.0 mph 7.0 mph 37% 0.00 in 540.00 W/m2
10:45 73.7 °F 44.4 °F 30.19 in Calm   7.0 mph 35% 0.00 in 548.00 W/m2
10:50 74.4 °F 45.0 °F 30.19 in Calm     35% 0.00 in 557.00 W/m2
10:55 74.8 °F 46.8 °F 30.19 in East 2.0 mph 7.0 mph 37% 0.00 in 566.00 W/m2
11:00 75.1 °F 48.5 °F 30.19 in Calm   5.0 mph 39% 0.00 in 575.00 W/m2
11:05 75.5 °F 48.8 °F 30.19 in Calm     39% 0.00 in 582.00 W/m2
11:10 76.0 °F 46.4 °F 30.19 in Calm   4.0 mph 35% 0.00 in 591.00 W/m2
11:15 76.6 °F 46.9 °F 30.18 in Calm   3.0 mph 35% 0.00 in 598.00 W/m2
11:20 76.9 °F 46.4 °F 30.18 in Calm   2.0 mph 34% 0.00 in 603.00 W/m2
11:25 77.4 °F 46.9 °F 30.18 in Calm   1.0 mph 34% 0.00 in 612.00 W/m2
11:30 77.7 °F 47.1 °F 30.18 in Calm   1.0 mph 34% 0.00 in 617.00 W/m2
11:35 78.1 °F 47.5 °F 30.18 in Calm     34% 0.00 in 624.00 W/m2
11:40 78.3 °F 46.0 °F 30.18 in Calm   3.0 mph 32% 0.00 in 628.00 W/m2
11:45 78.6 °F 45.5 °F 30.18 in NNE 1.0 mph 3.0 mph 31% 0.00 in 633.00 W/m2
11:50 78.9 °F 45.7 °F 30.17 in Calm   3.0 mph 31% 0.00 in 638.00 W/m2
11:55 79.0 °F 45.0 °F 30.17 in NNE 3.0 mph 5.0 mph 30% 0.00 in 642.00 W/m2
12:00 79.3 °F 45.2 °F 30.17 in North 1.0 mph 5.0 mph 30% 0.00 in 645.00 W/m2
12:05 79.4 °F 44.4 °F 30.17 in North 1.0 mph 4.0 mph 29% 0.00 in 649.00 W/m2
12:10 79.8 °F 43.8 °F 30.17 in North 2.0 mph 5.0 mph 28% 0.00 in 652.00 W/m2
12:15 80.0 °F 44.0 °F 30.17 in NNW 4.0 mph 4.0 mph 28% 0.00 in 654.00 W/m2
12:20 80.1 °F 45.0 °F 30.16 in Calm   4.0 mph 29% 0.00 in 657.00 W/m2
12:25 80.3 °F 44.3 °F 30.16 in Calm   5.0 mph 28% 0.00 in 657.00 W/m2
12:30 80.5 °F 44.4 °F 30.16 in NW 2.0 mph 3.0 mph 28% 0.00 in 659.00 W/m2
12:35 80.6 °F 45.4 °F 30.16 in NW 2.0 mph 4.0 mph 29% 0.00 in 661.00 W/m2
12:40 80.7 °F 45.5 °F 30.16 in NW 1.0 mph 4.0 mph 29% 0.00 in 661.00 W/m2
12:45 80.8 °F 43.7 °F 30.15 in WNW 2.0 mph 3.0 mph 27% 0.00 in 661.00 W/m2
12:50 80.9 °F 45.7 °F 30.15 in NW 1.0 mph 5.0 mph 29% 0.00 in 661.00 W/m2
12:52 81.0 °F 44.9 °F 30.15 in NW 2.0 mph 3.0 mph 28% 0.00 in 661.00 W/m2
12:57 81.2 °F 46.8 °F 30.15 in Calm   7.0 mph 30% 0.00 in 659.00 W/m2
13:08 81.6 °F 48.1 °F 30.14 in WNW 1.0 mph 5.0 mph 31% 0.00 in 656.00 W/m2
13:13 81.7 °F 49.0 °F 30.14 in Calm   3.0 mph 32% 0.00 in 652.00 W/m2
13:18 81.8 °F 49.1 °F 30.14 in Calm   4.0 mph 32% 0.00 in 650.00 W/m2
13:23 81.9 °F 50.0 °F 30.14 in WNW 3.0 mph 5.0 mph 33% 0.00 in 649.00 W/m2
13:28 81.9 °F 50.8 °F 30.14 in Calm   2.0 mph 34% 0.00 in 645.00 W/m2
13:33 81.8 °F 50.7 °F 30.13 in Calm   4.0 mph 34% 0.00 in 640.00 W/m2
13:38 81.7 °F 50.6 °F 30.13 in Calm   4.0 mph 34% 0.00 in 635.00 W/m2
13:43 81.6 °F 52.1 °F 30.13 in West 2.0 mph 4.0 mph 36% 0.00 in 629.00 W/m2
13:48 81.5 °F 52.0 °F 30.13 in West 4.0 mph 5.0 mph 36% 0.00 in 626.00 W/m2
13:53 81.4 °F 51.9 °F 30.13 in West 1.0 mph 4.0 mph 36% 0.00 in 619.00 W/m2
13:58 81.4 °F 52.7 °F 30.13 in Calm   6.0 mph 37% 0.00 in 613.00 W/m2
14:03 81.3 °F 52.6 °F 30.12 in WNW 3.0 mph 4.0 mph 37% 0.00 in 606.00 W/m2
14:08 81.3 °F 53.3 °F 30.12 in Calm   2.0 mph 38% 0.00 in 601.00 W/m2
14:13 81.2 °F 53.2 °F 30.12 in West 2.0 mph 3.0 mph 38% 0.00 in 592.00 W/m2
14:18 81.1 °F 53.8 °F 30.12 in West 1.0 mph 5.0 mph 39% 0.00 in 585.00 W/m2
14:23 81.1 °F 53.8 °F 30.12 in Calm   3.0 mph 39% 0.00 in 578.00 W/m2
14:28 81.1 °F 54.5 °F 30.12 in West 3.0 mph 5.0 mph 40% 0.00 in 568.00 W/m2
14:33 81.0 °F 53.7 °F 30.12 in Calm   2.0 mph 39% 0.00 in 561.00 W/m2
14:38 81.0 °F 53.7 °F 30.12 in Calm   5.0 mph 39% 0.00 in 550.00 W/m2
14:43 80.9 °F 54.3 °F 30.11 in Calm   6.0 mph 40% 0.00 in 543.00 W/m2
14:48 80.8 °F 54.2 °F 30.11 in West 1.0 mph 3.0 mph 40% 0.00 in 534.00 W/m2
14:53 80.7 °F 52.8 °F 30.11 in WNW 2.0 mph 2.0 mph 38% 0.00 in 524.00 W/m2
14:58 80.6 °F 53.4 °F 30.11 in West 1.0 mph 4.0 mph 39% 0.00 in 515.00 W/m2
15:03 80.5 °F 53.3 °F 30.11 in Calm     39% 0.00 in 504.00 W/m2
15:08 80.5 °F 53.3 °F 30.10 in Calm   2.0 mph 39% 0.00 in 492.00 W/m2
15:13 80.5 °F 53.3 °F 30.10 in Calm   2.0 mph 39% 0.00 in 483.00 W/m2
15:18 80.5 °F 53.3 °F 30.10 in Calm   4.0 mph 39% 0.00 in 469.00 W/m2
15:24 80.4 °F 53.9 °F 30.10 in Calm   3.0 mph 40% 0.00 in 457.00 W/m2
15:29 80.4 °F 53.2 °F 30.10 in Calm   2.0 mph 39% 0.00 in 446.00 W/m2
15:34 80.3 °F 53.1 °F 30.10 in Calm   1.0 mph 39% 0.00 in 432.00 W/m2
15:39 80.2 °F 53.7 °F 30.10 in Calm   2.0 mph 40% 0.00 in 420.00 W/m2
15:44 80.1 °F 53.6 °F 30.10 in Calm   1.0 mph 40% 0.00 in 406.00 W/m2
15:49 80.1 °F 53.6 °F 30.10 in Calm   2.0 mph 40% 0.00 in 392.00 W/m2
15:54 79.9 °F 52.8 °F 30.10 in Calm   5.0 mph 39% 0.00 in 383.00 W/m2
15:59 79.9 °F 52.0 °F 30.10 in Calm   1.0 mph 38% 0.00 in 367.00 W/m2
16:04 79.8 °F 53.4 °F 30.10 in Calm   3.0 mph 40% 0.00 in 353.00 W/m2
16:09 79.8 °F 53.4 °F 30.10 in West 3.0 mph 3.0 mph 40% 0.00 in 338.00 W/m2
16:14 79.7 °F 53.3 °F 30.10 in Calm     40% 0.00 in 323.00 W/m2
16:19 79.6 °F 53.8 °F 30.10 in Calm   4.0 mph 41% 0.00 in 309.00 W/m2
16:24 79.6 °F 53.2 °F 30.10 in Calm   3.0 mph 40% 0.00 in 295.00 W/m2
16:29 79.5 °F 54.4 °F 30.10 in Calm   2.0 mph 42% 0.00 in 279.00 W/m2
16:34 79.4 °F 53.7 °F 30.10 in Calm     41% 0.00 in 264.00 W/m2
16:39 79.2 °F 53.5 °F 30.10 in Calm     41% 0.00 in 248.00 W/m2
16:44 79.0 °F 54.6 °F 30.10 in Calm   1.0 mph 43% 0.00 in 232.00 W/m2
16:49 78.7 °F 53.7 °F 30.10 in Calm   1.0 mph 42% 0.00 in 218.00 W/m2
16:54 78.5 °F 52.9 °F 30.10 in Calm   2.0 mph 41% 0.00 in 199.00 W/m2
16:59 78.3 °F 53.3 °F 30.10 in Calm   1.0 mph 42% 0.00 in 179.00 W/m2
17:04 78.1 °F 53.8 °F 30.09 in Calm     43% 0.00 in 158.00 W/m2
17:09 78.0 °F 53.7 °F 30.09 in Calm     43% 0.00 in 139.00 W/m2
17:14 77.9 °F 53.6 °F 30.09 in Calm     43% 0.00 in 120.00 W/m2
17:19 77.7 °F 54.1 °F 30.09 in Calm     44% 0.00 in 104.00 W/m2
17:24 77.4 °F 54.4 °F 30.09 in Calm     45% 0.00 in 86.00 W/m2
17:29 77.1 °F 55.3 °F 30.09 in Calm     47% 0.00 in 69.00 W/m2
17:34 76.7 °F 54.4 °F 30.09 in Calm     46% 0.00 in 54.00 W/m2
17:39 76.2 °F 54.5 °F 30.09 in Calm     47% 0.00 in 40.00 W/m2
17:44 75.7 °F 54.6 °F 30.09 in Calm     48% 0.00 in 30.00 W/m2
17:49 75.3 °F 54.8 °F 30.09 in Calm     49% 0.00 in 19.00 W/m2
17:54 75.0 °F 55.1 °F 30.09 in Calm     50% 0.00 in 14.00 W/m2
17:59 74.7 °F 55.4 °F 30.09 in Calm     51% 0.00 in 11.00 W/m2
18:04 74.2 °F 55.5 °F 30.09 in Calm     52% 0.00 in 9.00 W/m2
18:09 73.6 °F 54.9 °F 30.09 in Calm     52% 0.00 in 7.00 W/m2
18:14 73.2 °F 55.1 °F 30.09 in Calm     53% 0.00 in 5.00 W/m2
18:15 73.2 °F 55.6 °F 30.09 in Calm     54% 0.00 in 5.00 W/m2
18:20 72.8 °F 54.7 °F 30.09 in Calm     53% 0.00 in 0.00 W/m2
18:25 72.3 °F 55.2 °F 30.09 in Calm     55% 0.00 in 0.00 W/m2
18:30 71.8 °F 54.8 °F 30.09 in Calm     55% 0.00 in 0.00 W/m2
18:35 71.2 °F 54.2 °F 30.09 in Calm     55% 0.00 in 0.00 W/m2
18:40 70.9 °F 54.4 °F 30.09 in Calm     56% 0.00 in 0.00 W/m2
18:45 70.6 °F 53.7 °F 30.09 in Calm     55% 0.00 in 0.00 W/m2
18:50 70.4 °F 53.5 °F 30.09 in Calm     55% 0.00 in 0.00 W/m2
18:55 70.1 °F 53.7 °F 30.09 in Calm     56% 0.00 in 0.00 W/m2
19:00 69.9 °F 53.5 °F 30.09 in Calm     56% 0.00 in 0.00 W/m2
19:05 69.8 °F 53.9 °F 30.09 in Calm     57% 0.00 in 0.00 W/m2
19:06 69.8 °F 53.9 °F 30.09 in Calm     57% 0.00 in 0.00 W/m2
19:11 69.7 °F 53.8 °F 30.09 in Calm     57% 0.00 in 0.00 W/m2
19:16 69.6 °F 53.7 °F 30.09 in Calm     57% 0.00 in 0.00 W/m2
19:21 69.5 °F 53.1 °F 30.09 in Calm     56% 0.00 in 0.00 W/m2
19:26 69.5 °F 53.6 °F 30.09 in Calm     57% 0.00 in 0.00 W/m2
19:32 69.4 °F 53.0 °F 30.09 in Calm   2.0 mph 56% 0.00 in 0.00 W/m2
19:37 69.3 °F 53.0 °F 30.09 in Calm   1.0 mph 56% 0.00 in 0.00 W/m2
19:42 69.2 °F 52.8 °F 30.09 in South 1.0 mph 1.0 mph 56% 0.00 in 0.00 W/m2
19:47 69.2 °F 52.8 °F 30.09 in Calm   1.0 mph 56% 0.00 in 0.00 W/m2
19:52 69.2 °F 52.8 °F 30.09 in SSE 1.0 mph 2.0 mph 56% 0.00 in 0.00 W/m2
19:57 69.1 °F 52.3 °F 30.09 in Calm   2.0 mph 55% 0.00 in 0.00 W/m2
20:02 69.1 °F 52.3 °F 30.09 in SE 1.0 mph 2.0 mph 55% 0.00 in 0.00 W/m2
20:07 69.1 °F 52.8 °F 30.09 in Calm   1.0 mph 56% 0.00 in 0.00 W/m2
20:12 69.1 °F 52.8 °F 30.09 in SE 1.0 mph 1.0 mph 56% 0.00 in 0.00 W/m2
20:17 69.1 °F 52.8 °F 30.09 in Calm   4.0 mph 56% 0.00 in 0.00 W/m2
20:22 69.1 °F 52.8 °F 30.09 in ESE 1.0 mph 1.0 mph 56% 0.00 in 0.00 W/m2
20:27 69.1 °F 52.3 °F 30.09 in Calm   6.0 mph 55% 0.00 in 0.00 W/m2
20:32 69.1 °F 52.3 °F 30.09 in Calm   2.0 mph 55% 0.00 in 0.00 W/m2
20:37 69.2 °F 52.4 °F 30.09 in Calm   2.0 mph 55% 0.00 in 0.00 W/m2
20:42 69.2 °F 52.4 °F 30.09 in Calm   4.0 mph 55% 0.00 in 0.00 W/m2
20:47 69.3 °F 53.0 °F 30.09 in Calm   4.0 mph 56% 0.00 in 0.00 W/m2
20:52 69.3 °F 53.0 °F 30.09 in ESE 2.0 mph 5.0 mph 56% 0.00 in 0.00 W/m2
20:57 69.3 °F 53.0 °F 30.08 in Calm   5.0 mph 56% 0.00 in 0.00 W/m2
21:02 69.2 °F 52.8 °F 30.08 in East 2.0 mph 6.0 mph 56% 0.00 in 0.00 W/m2
21:07 69.1 °F 52.3 °F 30.08 in East 1.0 mph 7.0 mph 55% 0.00 in 0.00 W/m2
21:12 69.1 °F 52.8 °F 30.08 in ESE 2.0 mph 6.0 mph 56% 0.00 in 0.00 W/m2
21:17 69.1 °F 52.8 °F 30.08 in ESE 2.0 mph 8.0 mph 56% 0.00 in 0.00 W/m2
21:22 69.0 °F 52.2 °F 30.08 in Calm   7.0 mph 55% 0.00 in 0.00 W/m2
21:27 69.0 °F 51.7 °F 30.08 in Calm   6.0 mph 54% 0.00 in 0.00 W/m2
21:32 69.0 °F 51.7 °F 30.09 in Calm   7.0 mph 54% 0.00 in 0.00 W/m2
21:37 69.0 °F 52.2 °F 30.08 in East 2.0 mph 7.0 mph 55% 0.00 in 0.00 W/m2
21:42 69.0 °F 51.7 °F 30.09 in East 1.0 mph 6.0 mph 54% 0.00 in 0.00 W/m2
21:43 69.0 °F 51.7 °F 30.09 in East 1.0 mph 6.0 mph 54% 0.00 in 0.00 W/m2
21:48 68.9 °F 51.6 °F 30.09 in Calm   13.0 mph 54% 0.00 in 0.00 W/m2
21:53 68.9 °F 51.6 °F 30.09 in ESE 1.0 mph 11.0 mph 54% 0.00 in 0.00 W/m2
21:58 68.8 °F 51.5 °F 30.09 in ESE 6.0 mph 11.0 mph 54% 0.00 in 0.00 W/m2
22:03 68.7 °F 51.4 °F 30.09 in East 4.0 mph 15.0 mph 54% 0.00 in 0.00 W/m2
22:08 68.7 °F 50.9 °F 30.09 in ENE 7.0 mph 9.0 mph 53% 0.00 in 0.00 W/m2
22:13 68.7 °F 50.4 °F 30.08 in East 2.0 mph 11.0 mph 52% 0.00 in 0.00 W/m2
22:18 68.6 °F 50.3 °F 30.08 in ESE 4.0 mph 9.0 mph 52% 0.00 in 0.00 W/m2
22:23 68.6 °F 49.2 °F 30.09 in Calm   12.0 mph 50% 0.00 in 0.00 W/m2
22:28 68.7 °F 49.3 °F 30.08 in East 2.0 mph 11.0 mph 50% 0.00 in 0.00 W/m2
22:33 68.6 °F 48.7 °F 30.08 in ESE 2.0 mph 9.0 mph 49% 0.00 in 0.00 W/m2
22:38 68.6 °F 48.7 °F 30.08 in ESE 5.0 mph 8.0 mph 49% 0.00 in 0.00 W/m2
22:43 68.6 °F 48.7 °F 30.09 in East 4.0 mph 9.0 mph 49% 0.00 in 0.00 W/m2
22:48 68.6 °F 48.7 °F 30.09 in ESE 1.0 mph 11.0 mph 49% 0.00 in 0.00 W/m2
22:53 68.5 °F 48.6 °F 30.08 in East 7.0 mph 9.0 mph 49% 0.00 in 0.00 W/m2
22:58 68.4 °F 48.0 °F 30.09 in ESE 2.0 mph 12.0 mph 48% 0.00 in 0.00 W/m2
23:03 68.4 °F 48.0 °F 30.08 in East 5.0 mph 14.0 mph 48% 0.00 in 0.00 W/m2
23:08 68.3 °F 47.9 °F 30.09 in ESE 1.0 mph 11.0 mph 48% 0.00 in 0.00 W/m2
23:13 68.2 °F 47.2 °F 30.09 in ESE 9.0 mph 11.0 mph 47% 0.00 in 0.00 W/m2
23:19 68.1 °F 46.0 °F 30.08 in ESE 2.0 mph 11.0 mph 45% 0.00 in 0.00 W/m2
23:24 68.1 °F 45.4 °F 30.09 in East 4.0 mph 11.0 mph 44% 0.00 in 0.00 W/m2
23:29 68.1 °F 46.0 °F 30.08 in East 8.0 mph 8.0 mph 45% 0.00 in 0.00 W/m2
23:34 68.1 °F 45.4 °F 30.08 in ESE 1.0 mph 8.0 mph 44% 0.00 in 0.00 W/m2
23:39 68.1 °F 45.4 °F 30.08 in ESE 1.0 mph 8.0 mph 44% 0.00 in 0.00 W/m2
23:44 68.1 °F 45.4 °F 30.08 in Calm   9.0 mph 44% 0.00 in 0.00 W/m2
23:49 68.0 °F 45.3 °F 30.08 in Calm   8.0 mph 44% 0.00 in 0.00 W/m2
23:54 68.0 °F 44.7 °F 30.08 in Calm   9.0 mph 43% 0.00 in 0.00 W/m2
23:55 68.0 °F 44.7 °F 30.08 in Calm   9.0 mph 43% 0.00 in 0.00 W/m2
Foresthill Weather
 WU-history PHP script courtesy of   Juneau County Weather.
powered by Cumulus v1.9.3 (1059)
Ambient Weather VWS v14.00
Top Contact Website Map Copyright © 2007 - 2018 Foresthillweather.com Never base important decisions on this or any weather information obtained from the Internet